sensor_id;sensor_type;location;lat;lon;timestamp;P1;durP1;ratioP1;P2;durP2;ratioP2
21032;SDS011;10675;47.976;7.824;2023-12-20T00:02:13;1.23;;;0.80;;
21032;SDS011;10675;47.976;7.824;2023-12-20T00:04:39;0.47;;;0.47;;
21032;SDS011;10675;47.976;7.824;2023-12-20T00:07:04;1.90;;;0.70;;
21032;SDS011;10675;47.976;7.824;2023-12-20T00:09:30;0.60;;;0.60;;
21032;SDS011;10675;47.976;7.824;2023-12-20T00:11:55;0.50;;;0.50;;
21032;SDS011;10675;47.976;7.824;2023-12-20T00:14:21;0.60;;;0.60;;
21032;SDS011;10675;47.976;7.824;2023-12-20T00:16:47;1.33;;;0.53;;
21032;SDS011;10675;47.976;7.824;2023-12-20T00:19:12;0.47;;;0.47;;
21032;SDS011;10675;47.976;7.824;2023-12-20T00:21:38;0.50;;;0.50;;
21032;SDS011;10675;47.976;7.824;2023-12-20T00:24:04;0.77;;;0.73;;
21032;SDS011;10675;47.976;7.824;2023-12-20T00:26:30;0.67;;;0.63;;
21032;SDS011;10675;47.976;7.824;2023-12-20T00:28:55;0.70;;;0.70;;
21032;SDS011;10675;47.976;7.824;2023-12-20T00:31:21;0.60;;;0.60;;
21032;SDS011;10675;47.976;7.824;2023-12-20T00:33:46;0.77;;;0.77;;
21032;SDS011;10675;47.976;7.824;2023-12-20T00:36:12;0.60;;;0.60;;
21032;SDS011;10675;47.976;7.824;2023-12-20T00:38:37;0.70;;;0.70;;
21032;SDS011;10675;47.976;7.824;2023-12-20T00:41:03;0.83;;;0.80;;
21032;SDS011;10675;47.976;7.824;2023-12-20T00:43:28;0.63;;;0.63;;
21032;SDS011;10675;47.976;7.824;2023-12-20T00:45:54;0.70;;;0.70;;
21032;SDS011;10675;47.976;7.824;2023-12-20T00:48:20;0.73;;;0.50;;
21032;SDS011;10675;47.976;7.824;2023-12-20T00:50:46;2.53;;;0.67;;
21032;SDS011;10675;47.976;7.824;2023-12-20T00:53:11;0.70;;;0.70;;
21032;SDS011;10675;47.976;7.824;2023-12-20T00:55:37;0.80;;;0.80;;
21032;SDS011;10675;47.976;7.824;2023-12-20T00:58:02;0.53;;;0.53;;
21032;SDS011;10675;47.976;7.824;2023-12-20T01:00:28;0.70;;;0.70;;
21032;SDS011;10675;47.976;7.824;2023-12-20T01:02:53;0.70;;;0.70;;
21032;SDS011;10675;47.976;7.824;2023-12-20T01:05:19;0.73;;;0.67;;
21032;SDS011;10675;47.976;7.824;2023-12-20T01:07:47;0.53;;;0.53;;
21032;SDS011;10675;47.976;7.824;2023-12-20T01:10:13;0.60;;;0.60;;
21032;SDS011;10675;47.976;7.824;2023-12-20T01:12:39;0.50;;;0.50;;
21032;SDS011;10675;47.976;7.824;2023-12-20T01:15:05;0.60;;;0.60;;
21032;SDS011;10675;47.976;7.824;2023-12-20T01:17:30;1.17;;;0.80;;
21032;SDS011;10675;47.976;7.824;2023-12-20T01:19:56;0.60;;;0.60;;
21032;SDS011;10675;47.976;7.824;2023-12-20T01:22:21;0.50;;;0.50;;
21032;SDS011;10675;47.976;7.824;2023-12-20T01:24:47;0.53;;;0.53;;
21032;SDS011;10675;47.976;7.824;2023-12-20T01:27:12;0.60;;;0.60;;
21032;SDS011;10675;47.976;7.824;2023-12-20T01:29:38;0.63;;;0.63;;
21032;SDS011;10675;47.976;7.824;2023-12-20T01:32:04;0.60;;;0.60;;
21032;SDS011;10675;47.976;7.824;2023-12-20T01:34:29;0.73;;;0.57;;
21032;SDS011;10675;47.976;7.824;2023-12-20T01:36:55;0.40;;;0.40;;
21032;SDS011;10675;47.976;7.824;2023-12-20T01:39:20;0.63;;;0.63;;
21032;SDS011;10675;47.976;7.824;2023-12-20T01:41:46;0.93;;;0.70;;
21032;SDS011;10675;47.976;7.824;2023-12-20T01:44:11;0.57;;;0.57;;
21032;SDS011;10675;47.976;7.824;2023-12-20T01:46:37;0.63;;;0.63;;
21032;SDS011;10675;47.976;7.824;2023-12-20T01:49:03;0.83;;;0.83;;
21032;SDS011;10675;47.976;7.824;2023-12-20T01:51:28;0.40;;;0.40;;
21032;SDS011;10675;47.976;7.824;2023-12-20T01:53:55;0.40;;;0.40;;
21032;SDS011;10675;47.976;7.824;2023-12-20T01:56:22;0.47;;;0.47;;
21032;SDS011;10675;47.976;7.824;2023-12-20T01:58:49;0.40;;;0.37;;
21032;SDS011;10675;47.976;7.824;2023-12-20T02:01:14;0.43;;;0.43;;
21032;SDS011;10675;47.976;7.824;2023-12-20T02:03:41;0.33;;;0.33;;
21032;SDS011;10675;47.976;7.824;2023-12-20T02:06:07;0.33;;;0.33;;
21032;SDS011;10675;47.976;7.824;2023-12-20T02:08:34;0.40;;;0.40;;
21032;SDS011;10675;47.976;7.824;2023-12-20T02:10:59;0.40;;;0.40;;
21032;SDS011;10675;47.976;7.824;2023-12-20T02:13:25;0.70;;;0.60;;
21032;SDS011;10675;47.976;7.824;2023-12-20T02:15:51;1.70;;;0.40;;
21032;SDS011;10675;47.976;7.824;2023-12-20T02:18:17;0.40;;;0.40;;
21032;SDS011;10675;47.976;7.824;2023-12-20T02:20:43;0.40;;;0.40;;
21032;SDS011;10675;47.976;7.824;2023-12-20T02:23:08;0.40;;;0.40;;
21032;SDS011;10675;47.976;7.824;2023-12-20T02:25:34;0.30;;;0.30;;
21032;SDS011;10675;47.976;7.824;2023-12-20T02:28:00;0.37;;;0.37;;
21032;SDS011;10675;47.976;7.824;2023-12-20T02:30:26;0.50;;;0.50;;
21032;SDS011;10675;47.976;7.824;2023-12-20T02:32:52;0.43;;;0.43;;
21032;SDS011;10675;47.976;7.824;2023-12-20T02:35:18;1.43;;;0.53;;
21032;SDS011;10675;47.976;7.824;2023-12-20T02:37:44;0.37;;;0.37;;
21032;SDS011;10675;47.976;7.824;2023-12-20T02:40:09;0.60;;;0.60;;
21032;SDS011;10675;47.976;7.824;2023-12-20T02:42:35;0.40;;;0.40;;
21032;SDS011;10675;47.976;7.824;2023-12-20T02:45:01;0.40;;;0.40;;
21032;SDS011;10675;47.976;7.824;2023-12-20T02:47:26;0.80;;;0.60;;
21032;SDS011;10675;47.976;7.824;2023-12-20T02:49:52;0.87;;;0.50;;
21032;SDS011;10675;47.976;7.824;2023-12-20T02:52:18;0.67;;;0.57;;
21032;SDS011;10675;47.976;7.824;2023-12-20T02:54:43;0.40;;;0.40;;
21032;SDS011;10675;47.976;7.824;2023-12-20T02:57:09;0.50;;;0.50;;
21032;SDS011;10675;47.976;7.824;2023-12-20T02:59:34;0.70;;;0.70;;
21032;SDS011;10675;47.976;7.824;2023-12-20T03:02:00;0.60;;;0.60;;
21032;SDS011;10675;47.976;7.824;2023-12-20T03:04:25;0.50;;;0.50;;
21032;SDS011;10675;47.976;7.824;2023-12-20T03:06:51;0.50;;;0.50;;
21032;SDS011;10675;47.976;7.824;2023-12-20T03:09:16;0.73;;;0.73;;
21032;SDS011;10675;47.976;7.824;2023-12-20T03:11:42;0.57;;;0.57;;
21032;SDS011;10675;47.976;7.824;2023-12-20T03:14:07;2.40;;;0.60;;
21032;SDS011;10675;47.976;7.824;2023-12-20T03:16:33;2.93;;;0.60;;
21032;SDS011;10675;47.976;7.824;2023-12-20T03:18:58;0.50;;;0.50;;
21032;SDS011;10675;47.976;7.824;2023-12-20T03:21:24;0.60;;;0.60;;
21032;SDS011;10675;47.976;7.824;2023-12-20T03:23:49;0.50;;;0.50;;
21032;SDS011;10675;47.976;7.824;2023-12-20T03:26:16;0.50;;;0.50;;
21032;SDS011;10675;47.976;7.824;2023-12-20T03:28:41;0.47;;;0.47;;
21032;SDS011;10675;47.976;7.824;2023-12-20T03:31:07;0.40;;;0.40;;
21032;SDS011;10675;47.976;7.824;2023-12-20T03:33:34;0.50;;;0.50;;
21032;SDS011;10675;47.976;7.824;2023-12-20T03:35:59;0.73;;;0.50;;
21032;SDS011;10675;47.976;7.824;2023-12-20T03:38:25;0.60;;;0.60;;
21032;SDS011;10675;47.976;7.824;2023-12-20T03:40:50;0.40;;;0.40;;
21032;SDS011;10675;47.976;7.824;2023-12-20T03:43:16;0.57;;;0.43;;
21032;SDS011;10675;47.976;7.824;2023-12-20T03:45:42;0.40;;;0.40;;
21032;SDS011;10675;47.976;7.824;2023-12-20T03:48:08;0.80;;;0.60;;
21032;SDS011;10675;47.976;7.824;2023-12-20T03:50:34;0.57;;;0.57;;
21032;SDS011;10675;47.976;7.824;2023-12-20T03:52:59;0.60;;;0.60;;
21032;SDS011;10675;47.976;7.824;2023-12-20T03:55:25;0.50;;;0.50;;
21032;SDS011;10675;47.976;7.824;2023-12-20T03:57:50;0.50;;;0.50;;
21032;SDS011;10675;47.976;7.824;2023-12-20T04:00:16;0.43;;;0.43;;
21032;SDS011;10675;47.976;7.824;2023-12-20T04:02:42;0.40;;;0.40;;
21032;SDS011;10675;47.976;7.824;2023-12-20T04:05:08;0.40;;;0.40;;
21032;SDS011;10675;47.976;7.824;2023-12-20T04:07:37;0.30;;;0.30;;
21032;SDS011;10675;47.976;7.824;2023-12-20T04:10:03;0.50;;;0.50;;
21032;SDS011;10675;47.976;7.824;2023-12-20T04:12:29;0.40;;;0.40;;
21032;SDS011;10675;47.976;7.824;2023-12-20T04:14:56;0.60;;;0.60;;
21032;SDS011;10675;47.976;7.824;2023-12-20T04:17:22;0.37;;;0.37;;
21032;SDS011;10675;47.976;7.824;2023-12-20T04:19:48;0.40;;;0.40;;
21032;SDS011;10675;47.976;7.824;2023-12-20T04:22:14;0.50;;;0.50;;
21032;SDS011;10675;47.976;7.824;2023-12-20T04:24:40;0.40;;;0.40;;
21032;SDS011;10675;47.976;7.824;2023-12-20T04:27:07;0.37;;;0.37;;
21032;SDS011;10675;47.976;7.824;2023-12-20T04:29:33;0.33;;;0.33;;
21032;SDS011;10675;47.976;7.824;2023-12-20T04:31:58;0.40;;;0.40;;
21032;SDS011;10675;47.976;7.824;2023-12-20T04:34:24;0.47;;;0.47;;
21032;SDS011;10675;47.976;7.824;2023-12-20T04:36:50;0.50;;;0.50;;
21032;SDS011;10675;47.976;7.824;2023-12-20T04:39:15;0.50;;;0.50;;
21032;SDS011;10675;47.976;7.824;2023-12-20T04:41:41;0.60;;;0.60;;
21032;SDS011;10675;47.976;7.824;2023-12-20T04:44:06;0.30;;;0.30;;
21032;SDS011;10675;47.976;7.824;2023-12-20T04:46:32;0.50;;;0.50;;
21032;SDS011;10675;47.976;7.824;2023-12-20T04:48:57;0.30;;;0.30;;
21032;SDS011;10675;47.976;7.824;2023-12-20T04:51:23;0.47;;;0.40;;
21032;SDS011;10675;47.976;7.824;2023-12-20T04:53:49;0.40;;;0.40;;
21032;SDS011;10675;47.976;7.824;2023-12-20T04:56:14;0.40;;;0.40;;
21032;SDS011;10675;47.976;7.824;2023-12-20T04:58:40;0.40;;;0.40;;
21032;SDS011;10675;47.976;7.824;2023-12-20T05:01:05;0.50;;;0.50;;
21032;SDS011;10675;47.976;7.824;2023-12-20T05:03:31;0.53;;;0.47;;
21032;SDS011;10675;47.976;7.824;2023-12-20T05:05:57;0.90;;;0.70;;
21032;SDS011;10675;47.976;7.824;2023-12-20T05:08:23;0.30;;;0.30;;
21032;SDS011;10675;47.976;7.824;2023-12-20T05:10:48;0.40;;;0.40;;
21032;SDS011;10675;47.976;7.824;2023-12-20T05:13:14;0.50;;;0.50;;
21032;SDS011;10675;47.976;7.824;2023-12-20T05:15:39;0.50;;;0.50;;
21032;SDS011;10675;47.976;7.824;2023-12-20T05:18:05;0.50;;;0.50;;
21032;SDS011;10675;47.976;7.824;2023-12-20T05:20:31;0.63;;;0.60;;
21032;SDS011;10675;47.976;7.824;2023-12-20T05:22:56;0.50;;;0.50;;
21032;SDS011;10675;47.976;7.824;2023-12-20T05:25:22;0.60;;;0.60;;
21032;SDS011;10675;47.976;7.824;2023-12-20T05:27:47;0.50;;;0.50;;
21032;SDS011;10675;47.976;7.824;2023-12-20T05:30:13;0.50;;;0.50;;
21032;SDS011;10675;47.976;7.824;2023-12-20T05:32:39;0.50;;;0.50;;
21032;SDS011;10675;47.976;7.824;2023-12-20T05:35:04;0.50;;;0.50;;
21032;SDS011;10675;47.976;7.824;2023-12-20T05:37:30;0.97;;;0.80;;
21032;SDS011;10675;47.976;7.824;2023-12-20T05:39:55;0.40;;;0.40;;
21032;SDS011;10675;47.976;7.824;2023-12-20T05:42:21;0.77;;;0.60;;
21032;SDS011;10675;47.976;7.824;2023-12-20T05:44:46;0.40;;;0.40;;
21032;SDS011;10675;47.976;7.824;2023-12-20T05:47:12;0.73;;;0.53;;
21032;SDS011;10675;47.976;7.824;2023-12-20T05:49:37;0.40;;;0.40;;
21032;SDS011;10675;47.976;7.824;2023-12-20T05:52:03;0.47;;;0.47;;
21032;SDS011;10675;47.976;7.824;2023-12-20T05:54:28;0.50;;;0.50;;
21032;SDS011;10675;47.976;7.824;2023-12-20T05:56:54;0.40;;;0.40;;
21032;SDS011;10675;47.976;7.824;2023-12-20T05:59:20;0.50;;;0.50;;
21032;SDS011;10675;47.976;7.824;2023-12-20T06:01:45;0.40;;;0.40;;
21032;SDS011;10675;47.976;7.824;2023-12-20T06:04:11;1.70;;;0.40;;
21032;SDS011;10675;47.976;7.824;2023-12-20T06:06:40;0.50;;;0.50;;
21032;SDS011;10675;47.976;7.824;2023-12-20T06:09:08;0.77;;;0.77;;
21032;SDS011;10675;47.976;7.824;2023-12-20T06:11:34;0.40;;;0.40;;
21032;SDS011;10675;47.976;7.824;2023-12-20T06:14:00;0.40;;;0.40;;
21032;SDS011;10675;47.976;7.824;2023-12-20T06:16:25;0.60;;;0.60;;
21032;SDS011;10675;47.976;7.824;2023-12-20T06:18:51;0.40;;;0.40;;
21032;SDS011;10675;47.976;7.824;2023-12-20T06:21:16;0.63;;;0.50;;
21032;SDS011;10675;47.976;7.824;2023-12-20T06:23:42;0.40;;;0.40;;
21032;SDS011;10675;47.976;7.824;2023-12-20T06:26:07;1.33;;;0.40;;
21032;SDS011;10675;47.976;7.824;2023-12-20T06:28:33;0.40;;;0.40;;
21032;SDS011;10675;47.976;7.824;2023-12-20T06:30:58;0.30;;;0.30;;
21032;SDS011;10675;47.976;7.824;2023-12-20T06:33:25;0.50;;;0.50;;
21032;SDS011;10675;47.976;7.824;2023-12-20T06:35:51;0.40;;;0.40;;
21032;SDS011;10675;47.976;7.824;2023-12-20T06:38:17;0.30;;;0.30;;
21032;SDS011;10675;47.976;7.824;2023-12-20T06:40:43;1.20;;;0.50;;
21032;SDS011;10675;47.976;7.824;2023-12-20T06:43:09;0.40;;;0.40;;
21032;SDS011;10675;47.976;7.824;2023-12-20T06:45:34;0.40;;;0.40;;
21032;SDS011;10675;47.976;7.824;2023-12-20T06:48:00;0.70;;;0.50;;
21032;SDS011;10675;47.976;7.824;2023-12-20T06:50:25;3.00;;;0.60;;
21032;SDS011;10675;47.976;7.824;2023-12-20T06:52:51;0.37;;;0.37;;
21032;SDS011;10675;47.976;7.824;2023-12-20T06:55:17;0.53;;;0.43;;
21032;SDS011;10675;47.976;7.824;2023-12-20T06:57:43;0.30;;;0.30;;
21032;SDS011;10675;47.976;7.824;2023-12-20T07:00:09;0.30;;;0.30;;
21032;SDS011;10675;47.976;7.824;2023-12-20T07:02:36;0.40;;;0.40;;
21032;SDS011;10675;47.976;7.824;2023-12-20T07:05:02;0.30;;;0.30;;
21032;SDS011;10675;47.976;7.824;2023-12-20T07:07:27;0.30;;;0.30;;
21032;SDS011;10675;47.976;7.824;2023-12-20T07:09:53;0.30;;;0.30;;
21032;SDS011;10675;47.976;7.824;2023-12-20T07:12:18;0.40;;;0.40;;
21032;SDS011;10675;47.976;7.824;2023-12-20T07:14:44;0.30;;;0.30;;
21032;SDS011;10675;47.976;7.824;2023-12-20T07:17:10;0.30;;;0.30;;
21032;SDS011;10675;47.976;7.824;2023-12-20T07:19:38;0.30;;;0.30;;
21032;SDS011;10675;47.976;7.824;2023-12-20T07:22:05;0.40;;;0.40;;
21032;SDS011;10675;47.976;7.824;2023-12-20T07:24:31;0.30;;;0.30;;
21032;SDS011;10675;47.976;7.824;2023-12-20T07:26:57;0.40;;;0.40;;
21032;SDS011;10675;47.976;7.824;2023-12-20T07:29:22;0.40;;;0.40;;
21032;SDS011;10675;47.976;7.824;2023-12-20T07:31:48;0.40;;;0.40;;
21032;SDS011;10675;47.976;7.824;2023-12-20T07:34:13;0.43;;;0.43;;
21032;SDS011;10675;47.976;7.824;2023-12-20T07:36:39;0.37;;;0.37;;
21032;SDS011;10675;47.976;7.824;2023-12-20T07:39:04;0.50;;;0.50;;
21032;SDS011;10675;47.976;7.824;2023-12-20T07:41:30;0.40;;;0.40;;
21032;SDS011;10675;47.976;7.824;2023-12-20T07:43:55;0.60;;;0.60;;
21032;SDS011;10675;47.976;7.824;2023-12-20T07:46:21;0.47;;;0.47;;
21032;SDS011;10675;47.976;7.824;2023-12-20T07:48:50;0.40;;;0.40;;
21032;SDS011;10675;47.976;7.824;2023-12-20T07:51:15;0.30;;;0.30;;
21032;SDS011;10675;47.976;7.824;2023-12-20T07:53:41;0.50;;;0.40;;
21032;SDS011;10675;47.976;7.824;2023-12-20T07:56:13;0.43;;;0.43;;
21032;SDS011;10675;47.976;7.824;2023-12-20T07:58:40;0.40;;;0.40;;
21032;SDS011;10675;47.976;7.824;2023-12-20T08:01:05;1.13;;;0.40;;
21032;SDS011;10675;47.976;7.824;2023-12-20T08:03:31;0.33;;;0.33;;
21032;SDS011;10675;47.976;7.824;2023-12-20T08:05:56;0.50;;;0.50;;
21032;SDS011;10675;47.976;7.824;2023-12-20T08:08:24;0.40;;;0.40;;
21032;SDS011;10675;47.976;7.824;2023-12-20T08:10:50;0.40;;;0.40;;
21032;SDS011;10675;47.976;7.824;2023-12-20T08:13:15;0.53;;;0.50;;
21032;SDS011;10675;47.976;7.824;2023-12-20T08:15:41;1.70;;;0.60;;
21032;SDS011;10675;47.976;7.824;2023-12-20T08:18:06;0.57;;;0.50;;
21032;SDS011;10675;47.976;7.824;2023-12-20T08:20:32;0.33;;;0.33;;
21032;SDS011;10675;47.976;7.824;2023-12-20T08:22:57;0.50;;;0.50;;
21032;SDS011;10675;47.976;7.824;2023-12-20T08:25:23;0.40;;;0.40;;
21032;SDS011;10675;47.976;7.824;2023-12-20T08:27:48;0.50;;;0.50;;
21032;SDS011;10675;47.976;7.824;2023-12-20T08:30:14;0.67;;;0.60;;
21032;SDS011;10675;47.976;7.824;2023-12-20T08:32:42;0.30;;;0.30;;
21032;SDS011;10675;47.976;7.824;2023-12-20T08:35:07;0.40;;;0.40;;
21032;SDS011;10675;47.976;7.824;2023-12-20T08:37:33;0.57;;;0.57;;
21032;SDS011;10675;47.976;7.824;2023-12-20T08:39:59;0.30;;;0.30;;
21032;SDS011;10675;47.976;7.824;2023-12-20T08:42:25;0.60;;;0.40;;
21032;SDS011;10675;47.976;7.824;2023-12-20T08:44:55;0.60;;;0.60;;
21032;SDS011;10675;47.976;7.824;2023-12-20T08:47:22;1.17;;;0.60;;
21032;SDS011;10675;47.976;7.824;2023-12-20T08:49:47;0.60;;;0.60;;
21032;SDS011;10675;47.976;7.824;2023-12-20T08:52:13;0.50;;;0.50;;
21032;SDS011;10675;47.976;7.824;2023-12-20T08:54:38;0.50;;;0.50;;
21032;SDS011;10675;47.976;7.824;2023-12-20T08:57:04;0.50;;;0.50;;
21032;SDS011;10675;47.976;7.824;2023-12-20T08:59:31;0.60;;;0.60;;
21032;SDS011;10675;47.976;7.824;2023-12-20T09:01:57;0.80;;;0.80;;
21032;SDS011;10675;47.976;7.824;2023-12-20T09:04:23;0.80;;;0.80;;
21032;SDS011;10675;47.976;7.824;2023-12-20T09:06:48;1.40;;;1.00;;
21032;SDS011;10675;47.976;7.824;2023-12-20T09:09:14;1.63;;;1.00;;
21032;SDS011;10675;47.976;7.824;2023-12-20T09:11:40;1.87;;;1.00;;
21032;SDS011;10675;47.976;7.824;2023-12-20T09:14:06;1.90;;;1.07;;
21032;SDS011;10675;47.976;7.824;2023-12-20T09:16:32;2.43;;;1.13;;
21032;SDS011;10675;47.976;7.824;2023-12-20T09:18:57;1.47;;;1.00;;
21032;SDS011;10675;47.976;7.824;2023-12-20T09:21:23;1.20;;;1.10;;
21032;SDS011;10675;47.976;7.824;2023-12-20T09:23:49;1.03;;;0.90;;
21032;SDS011;10675;47.976;7.824;2023-12-20T09:26:14;0.90;;;0.90;;
21032;SDS011;10675;47.976;7.824;2023-12-20T09:28:40;0.80;;;0.80;;
21032;SDS011;10675;47.976;7.824;2023-12-20T09:31:06;1.10;;;1.00;;
21032;SDS011;10675;47.976;7.824;2023-12-20T09:33:31;0.97;;;0.93;;
21032;SDS011;10675;47.976;7.824;2023-12-20T09:35:57;0.93;;;0.90;;
21032;SDS011;10675;47.976;7.824;2023-12-20T09:38:23;1.53;;;1.20;;
21032;SDS011;10675;47.976;7.824;2023-12-20T09:40:49;0.93;;;0.90;;
21032;SDS011;10675;47.976;7.824;2023-12-20T09:43:15;1.67;;;1.33;;
21032;SDS011;10675;47.976;7.824;2023-12-20T09:45:45;1.07;;;0.93;;
21032;SDS011;10675;47.976;7.824;2023-12-20T09:48:12;1.70;;;1.40;;
21032;SDS011;10675;47.976;7.824;2023-12-20T09:50:39;1.57;;;1.00;;
21032;SDS011;10675;47.976;7.824;2023-12-20T09:53:05;1.40;;;1.07;;
21032;SDS011;10675;47.976;7.824;2023-12-20T09:55:34;1.60;;;1.10;;
21032;SDS011;10675;47.976;7.824;2023-12-20T09:58:01;1.20;;;1.10;;
21032;SDS011;10675;47.976;7.824;2023-12-20T10:00:26;2.17;;;1.77;;
21032;SDS011;10675;47.976;7.824;2023-12-20T10:03:01;3.17;;;1.03;;
21032;SDS011;10675;47.976;7.824;2023-12-20T10:05:29;1.67;;;1.57;;
21032;SDS011;10675;47.976;7.824;2023-12-20T10:07:58;1.23;;;1.13;;
21032;SDS011;10675;47.976;7.824;2023-12-20T10:10:24;1.37;;;1.27;;
21032;SDS011;10675;47.976;7.824;2023-12-20T10:15:35;2.43;;;1.83;;
21032;SDS011;10675;47.976;7.824;2023-12-20T10:18:02;1.50;;;1.40;;
21032;SDS011;10675;47.976;7.824;2023-12-20T10:20:28;2.17;;;1.70;;
21032;SDS011;10675;47.976;7.824;2023-12-20T10:22:54;2.13;;;1.47;;
21032;SDS011;10675;47.976;7.824;2023-12-20T10:25:20;1.27;;;1.17;;
21032;SDS011;10675;47.976;7.824;2023-12-20T10:27:46;5.30;;;1.90;;
21032;SDS011;10675;47.976;7.824;2023-12-20T10:30:12;2.27;;;1.73;;
21032;SDS011;10675;47.976;7.824;2023-12-20T10:32:39;1.50;;;1.40;;
21032;SDS011;10675;47.976;7.824;2023-12-20T10:35:05;4.63;;;1.80;;
21032;SDS011;10675;47.976;7.824;2023-12-20T10:37:33;2.57;;;1.47;;
21032;SDS011;10675;47.976;7.824;2023-12-20T10:40:01;2.70;;;1.67;;
21032;SDS011;10675;47.976;7.824;2023-12-20T10:42:29;1.43;;;1.20;;
21032;SDS011;10675;47.976;7.824;2023-12-20T10:44:55;2.07;;;1.13;;
21032;SDS011;10675;47.976;7.824;2023-12-20T10:47:24;1.27;;;1.20;;
21032;SDS011;10675;47.976;7.824;2023-12-20T10:49:52;3.33;;;1.93;;
21032;SDS011;10675;47.976;7.824;2023-12-20T10:52:17;1.57;;;1.20;;
21032;SDS011;10675;47.976;7.824;2023-12-20T10:54:43;4.27;;;1.60;;
21032;SDS011;10675;47.976;7.824;2023-12-20T10:57:09;3.87;;;1.30;;
21032;SDS011;10675;47.976;7.824;2023-12-20T10:59:36;4.47;;;1.43;;
21032;SDS011;10675;47.976;7.824;2023-12-20T11:02:03;2.17;;;1.03;;
21032;SDS011;10675;47.976;7.824;2023-12-20T11:10:00;2.10;;;1.30;;
21032;SDS011;10675;47.976;7.824;2023-12-20T11:13:05;2.17;;;1.33;;
21032;SDS011;10675;47.976;7.824;2023-12-20T11:15:37;2.10;;;1.47;;
21032;SDS011;10675;47.976;7.824;2023-12-20T11:18:03;1.40;;;1.20;;
21032;SDS011;10675;47.976;7.824;2023-12-20T11:20:40;1.40;;;1.30;;
21032;SDS011;10675;47.976;7.824;2023-12-20T11:23:07;4.60;;;1.10;;
21032;SDS011;10675;47.976;7.824;2023-12-20T11:25:46;4.10;;;1.57;;
21032;SDS011;10675;47.976;7.824;2023-12-20T11:28:13;1.60;;;1.37;;
21032;SDS011;10675;47.976;7.824;2023-12-20T11:30:46;1.20;;;1.10;;
21032;SDS011;10675;47.976;7.824;2023-12-20T11:33:16;1.20;;;1.10;;
21032;SDS011;10675;47.976;7.824;2023-12-20T11:35:46;1.20;;;1.10;;
21032;SDS011;10675;47.976;7.824;2023-12-20T11:38:13;2.63;;;1.40;;
21032;SDS011;10675;47.976;7.824;2023-12-20T11:40:39;2.10;;;1.03;;
21032;SDS011;10675;47.976;7.824;2023-12-20T11:43:06;5.63;;;1.20;;
21032;SDS011;10675;47.976;7.824;2023-12-20T11:45:32;0.90;;;0.90;;
21032;SDS011;10675;47.976;7.824;2023-12-20T11:47:59;4.57;;;1.40;;
21032;SDS011;10675;47.976;7.824;2023-12-20T11:50:29;2.77;;;0.90;;
21032;SDS011;10675;47.976;7.824;2023-12-20T11:52:55;2.53;;;1.00;;
21032;SDS011;10675;47.976;7.824;2023-12-20T11:55:21;1.57;;;0.83;;
21032;SDS011;10675;47.976;7.824;2023-12-20T11:57:48;3.90;;;1.00;;
21032;SDS011;10675;47.976;7.824;2023-12-20T12:00:15;2.70;;;0.97;;
21032;SDS011;10675;47.976;7.824;2023-12-20T12:02:41;1.57;;;1.20;;
21032;SDS011;10675;47.976;7.824;2023-12-20T12:05:07;3.20;;;1.27;;
21032;SDS011;10675;47.976;7.824;2023-12-20T12:07:33;2.57;;;0.90;;
21032;SDS011;10675;47.976;7.824;2023-12-20T12:09:59;1.73;;;1.23;;
21032;SDS011;10675;47.976;7.824;2023-12-20T12:12:25;3.87;;;1.10;;
21032;SDS011;10675;47.976;7.824;2023-12-20T12:14:52;2.07;;;1.00;;
21032;SDS011;10675;47.976;7.824;2023-12-20T12:17:18;1.97;;;1.30;;
21032;SDS011;10675;47.976;7.824;2023-12-20T12:19:44;1.33;;;1.10;;
21032;SDS011;10675;47.976;7.824;2023-12-20T12:22:10;4.53;;;1.20;;
21032;SDS011;10675;47.976;7.824;2023-12-20T12:24:46;2.23;;;1.57;;
21032;SDS011;10675;47.976;7.824;2023-12-20T12:27:15;3.10;;;0.97;;
21032;SDS011;10675;47.976;7.824;2023-12-20T12:29:43;1.97;;;1.17;;
21032;SDS011;10675;47.976;7.824;2023-12-20T12:32:29;2.07;;;0.77;;
21032;SDS011;10675;47.976;7.824;2023-12-20T12:34:54;0.77;;;0.60;;
21032;SDS011;10675;47.976;7.824;2023-12-20T12:37:20;0.87;;;0.80;;
21032;SDS011;10675;47.976;7.824;2023-12-20T12:39:48;2.17;;;0.90;;
21032;SDS011;10675;47.976;7.824;2023-12-20T12:42:14;8.03;;;1.27;;
21032;SDS011;10675;47.976;7.824;2023-12-20T12:44:40;1.07;;;0.97;;
21032;SDS011;10675;47.976;7.824;2023-12-20T12:47:05;1.13;;;1.00;;
21032;SDS011;10675;47.976;7.824;2023-12-20T12:49:31;3.03;;;0.83;;
21032;SDS011;10675;47.976;7.824;2023-12-20T12:51:57;2.17;;;0.90;;
21032;SDS011;10675;47.976;7.824;2023-12-20T12:54:23;2.47;;;0.83;;
21032;SDS011;10675;47.976;7.824;2023-12-20T12:56:49;2.63;;;0.67;;
21032;SDS011;10675;47.976;7.824;2023-12-20T12:59:15;2.30;;;0.57;;
21032;SDS011;10675;47.976;7.824;2023-12-20T13:01:41;1.50;;;0.47;;
21032;SDS011;10675;47.976;7.824;2023-12-20T13:04:07;2.13;;;0.73;;
21032;SDS011;10675;47.976;7.824;2023-12-20T13:06:36;5.13;;;1.20;;
21032;SDS011;10675;47.976;7.824;2023-12-20T13:09:02;1.53;;;0.70;;
21032;SDS011;10675;47.976;7.824;2023-12-20T13:11:29;2.20;;;0.73;;
21032;SDS011;10675;47.976;7.824;2023-12-20T13:13:56;2.90;;;0.90;;
21032;SDS011;10675;47.976;7.824;2023-12-20T13:16:22;1.00;;;0.83;;
21032;SDS011;10675;47.976;7.824;2023-12-20T13:18:49;5.77;;;1.07;;
21032;SDS011;10675;47.976;7.824;2023-12-20T13:21:14;3.13;;;1.10;;
21032;SDS011;10675;47.976;7.824;2023-12-20T13:23:40;1.10;;;0.70;;
21032;SDS011;10675;47.976;7.824;2023-12-20T13:26:06;1.53;;;0.80;;
21032;SDS011;10675;47.976;7.824;2023-12-20T13:28:32;1.23;;;0.80;;
21032;SDS011;10675;47.976;7.824;2023-12-20T13:30:58;2.67;;;0.90;;
21032;SDS011;10675;47.976;7.824;2023-12-20T13:33:23;3.73;;;1.37;;
21032;SDS011;10675;47.976;7.824;2023-12-20T13:35:49;1.30;;;0.73;;
21032;SDS011;10675;47.976;7.824;2023-12-20T13:38:14;2.03;;;1.30;;
21032;SDS011;10675;47.976;7.824;2023-12-20T13:40:40;2.43;;;0.97;;
21032;SDS011;10675;47.976;7.824;2023-12-20T13:43:05;1.33;;;0.93;;
21032;SDS011;10675;47.976;7.824;2023-12-20T13:45:31;1.93;;;1.10;;
21032;SDS011;10675;47.976;7.824;2023-12-20T13:47:56;1.63;;;1.00;;
21032;SDS011;10675;47.976;7.824;2023-12-20T13:50:23;1.30;;;0.90;;
21032;SDS011;10675;47.976;7.824;2023-12-20T13:52:49;3.03;;;1.43;;
21032;SDS011;10675;47.976;7.824;2023-12-20T13:55:14;4.03;;;1.13;;
21032;SDS011;10675;47.976;7.824;2023-12-20T13:57:40;1.60;;;1.00;;
21032;SDS011;10675;47.976;7.824;2023-12-20T14:00:06;2.80;;;1.20;;
21032;SDS011;10675;47.976;7.824;2023-12-20T14:02:39;2.10;;;1.20;;
21032;SDS011;10675;47.976;7.824;2023-12-20T14:05:06;2.67;;;0.90;;
21032;SDS011;10675;47.976;7.824;2023-12-20T14:07:32;1.50;;;1.07;;
21032;SDS011;10675;47.976;7.824;2023-12-20T14:09:58;3.90;;;1.60;;
21032;SDS011;10675;47.976;7.824;2023-12-20T14:12:24;5.13;;;2.60;;
21032;SDS011;10675;47.976;7.824;2023-12-20T14:14:50;5.13;;;2.83;;
21032;SDS011;10675;47.976;7.824;2023-12-20T14:17:15;3.77;;;2.70;;
21032;SDS011;10675;47.976;7.824;2023-12-20T14:19:41;5.60;;;2.40;;
21032;SDS011;10675;47.976;7.824;2023-12-20T14:22:07;4.77;;;2.73;;
21032;SDS011;10675;47.976;7.824;2023-12-20T14:24:33;4.20;;;2.70;;
21032;SDS011;10675;47.976;7.824;2023-12-20T14:26:59;4.07;;;2.37;;
21032;SDS011;10675;47.976;7.824;2023-12-20T14:29:25;2.93;;;1.93;;
21032;SDS011;10675;47.976;7.824;2023-12-20T14:31:52;4.17;;;1.90;;
21032;SDS011;10675;47.976;7.824;2023-12-20T14:34:17;2.23;;;1.43;;
21032;SDS011;10675;47.976;7.824;2023-12-20T14:36:43;2.00;;;1.80;;
21032;SDS011;10675;47.976;7.824;2023-12-20T14:39:08;2.47;;;1.33;;
21032;SDS011;10675;47.976;7.824;2023-12-20T14:41:37;3.23;;;1.47;;
21032;SDS011;10675;47.976;7.824;2023-12-20T14:44:04;2.43;;;1.47;;
21032;SDS011;10675;47.976;7.824;2023-12-20T14:46:30;2.47;;;1.03;;
21032;SDS011;10675;47.976;7.824;2023-12-20T14:48:56;1.73;;;1.13;;
21032;SDS011;10675;47.976;7.824;2023-12-20T14:51:21;1.33;;;1.00;;